sensor_id;sensor_type;location;lat;lon;timestamp;P1;durP1;ratioP1;P2;durP2;ratioP2
51020;SDS011;38907;45.562;8.856;2023-05-07T00:04:40;7.30;;;6.18;;
51020;SDS011;38907;45.562;8.856;2023-05-07T00:09:44;8.90;;;6.50;;
51020;SDS011;38907;45.562;8.856;2023-05-07T00:14:45;6.75;;;6.05;;
51020;SDS011;38907;45.562;8.856;2023-05-07T00:19:47;5.65;;;5.13;;
51020;SDS011;38907;45.562;8.856;2023-05-07T00:24:51;7.68;;;5.60;;
51020;SDS011;38907;45.562;8.856;2023-05-07T00:29:52;6.95;;;6.22;;
51020;SDS011;38907;45.562;8.856;2023-05-07T00:34:54;12.27;;;7.43;;
51020;SDS011;38907;45.562;8.856;2023-05-07T00:39:58;8.00;;;7.20;;
51020;SDS011;38907;45.562;8.856;2023-05-07T00:45:00;9.98;;;6.97;;
51020;SDS011;38907;45.562;8.856;2023-05-07T00:50:03;9.40;;;7.10;;
51020;SDS011;38907;45.562;8.856;2023-05-07T00:55:07;6.80;;;5.03;;
51020;SDS011;38907;45.562;8.856;2023-05-07T01:00:10;5.38;;;4.60;;
51020;SDS011;38907;45.562;8.856;2023-05-07T01:05:13;4.82;;;4.40;;
51020;SDS011;38907;45.562;8.856;2023-05-07T01:10:18;5.32;;;4.40;;
51020;SDS011;38907;45.562;8.856;2023-05-07T01:15:20;5.90;;;4.00;;
51020;SDS011;38907;45.562;8.856;2023-05-07T01:20:22;7.00;;;3.70;;
51020;SDS011;38907;45.562;8.856;2023-05-07T01:25:26;6.68;;;3.10;;
51020;SDS011;38907;45.562;8.856;2023-05-07T01:30:28;3.85;;;2.83;;
51020;SDS011;38907;45.562;8.856;2023-05-07T01:35:32;3.72;;;3.13;;
51020;SDS011;38907;45.562;8.856;2023-05-07T01:40:40;3.65;;;3.00;;
51020;SDS011;38907;45.562;8.856;2023-05-07T01:45:42;4.35;;;3.47;;
51020;SDS011;38907;45.562;8.856;2023-05-07T01:55:49;2.53;;;2.33;;
51020;SDS011;38907;45.562;8.856;2023-05-07T02:00:51;3.72;;;2.00;;
51020;SDS011;38907;45.562;8.856;2023-05-07T02:05:53;3.45;;;2.03;;
51020;SDS011;38907;45.562;8.856;2023-05-07T02:10:56;2.17;;;1.88;;
51020;SDS011;38907;45.562;8.856;2023-05-07T02:15:58;2.80;;;2.50;;
51020;SDS011;38907;45.562;8.856;2023-05-07T02:21:00;2.53;;;2.07;;
51020;SDS011;38907;45.562;8.856;2023-05-07T02:26:03;4.80;;;2.80;;
51020;SDS011;38907;45.562;8.856;2023-05-07T02:31:05;5.60;;;3.15;;
51020;SDS011;38907;45.562;8.856;2023-05-07T02:36:08;8.02;;;4.28;;
51020;SDS011;38907;45.562;8.856;2023-05-07T02:41:12;7.80;;;4.82;;
51020;SDS011;38907;45.562;8.856;2023-05-07T02:46:13;10.23;;;5.97;;
51020;SDS011;38907;45.562;8.856;2023-05-07T02:51:17;7.22;;;5.47;;
51020;SDS011;38907;45.562;8.856;2023-05-07T02:56:22;5.78;;;4.80;;
51020;SDS011;38907;45.562;8.856;2023-05-07T03:01:24;6.93;;;4.95;;
51020;SDS011;38907;45.562;8.856;2023-05-07T03:06:26;13.32;;;5.50;;
51020;SDS011;38907;45.562;8.856;2023-05-07T03:11:29;10.45;;;5.40;;
51020;SDS011;38907;45.562;8.856;2023-05-07T03:16:31;7.70;;;5.32;;
51020;SDS011;38907;45.562;8.856;2023-05-07T03:21:33;5.50;;;4.13;;
51020;SDS011;38907;45.562;8.856;2023-05-07T03:26:36;10.70;;;4.47;;
51020;SDS011;38907;45.562;8.856;2023-05-07T03:31:38;6.40;;;3.88;;
51020;SDS011;38907;45.562;8.856;2023-05-07T03:36:40;4.78;;;4.32;;
51020;SDS011;38907;45.562;8.856;2023-05-07T03:41:43;7.43;;;4.68;;
51020;SDS011;38907;45.562;8.856;2023-05-07T03:46:45;7.43;;;3.80;;
51020;SDS011;38907;45.562;8.856;2023-05-07T03:51:48;5.80;;;3.67;;
51020;SDS011;38907;45.562;8.856;2023-05-07T03:56:51;4.10;;;3.40;;
51020;SDS011;38907;45.562;8.856;2023-05-07T04:01:53;3.78;;;3.35;;
51020;SDS011;38907;45.562;8.856;2023-05-07T04:06:55;6.53;;;3.15;;
51020;SDS011;38907;45.562;8.856;2023-05-07T04:11:58;4.32;;;3.30;;
51020;SDS011;38907;45.562;8.856;2023-05-07T04:17:01;5.35;;;3.30;;
51020;SDS011;38907;45.562;8.856;2023-05-07T04:22:03;4.47;;;3.30;;
51020;SDS011;38907;45.562;8.856;2023-05-07T04:27:06;5.53;;;2.85;;
51020;SDS011;38907;45.562;8.856;2023-05-07T04:32:08;4.18;;;2.72;;
51020;SDS011;38907;45.562;8.856;2023-05-07T04:37:10;4.43;;;2.73;;
51020;SDS011;38907;45.562;8.856;2023-05-07T04:42:15;5.07;;;2.67;;
51020;SDS011;38907;45.562;8.856;2023-05-07T04:47:17;3.10;;;2.63;;
51020;SDS011;38907;45.562;8.856;2023-05-07T04:52:19;2.50;;;2.30;;
51020;SDS011;38907;45.562;8.856;2023-05-07T04:57:22;6.88;;;3.15;;
51020;SDS011;38907;45.562;8.856;2023-05-07T05:02:24;5.80;;;3.03;;
51020;SDS011;38907;45.562;8.856;2023-05-07T05:07:26;5.65;;;2.65;;
51020;SDS011;38907;45.562;8.856;2023-05-07T05:12:30;4.25;;;2.80;;
51020;SDS011;38907;45.562;8.856;2023-05-07T05:17:31;4.70;;;3.13;;
51020;SDS011;38907;45.562;8.856;2023-05-07T05:22:34;5.43;;;2.85;;
51020;SDS011;38907;45.562;8.856;2023-05-07T05:27:38;3.33;;;2.70;;
51020;SDS011;38907;45.562;8.856;2023-05-07T05:32:39;4.72;;;3.00;;
51020;SDS011;38907;45.562;8.856;2023-05-07T05:37:41;4.38;;;3.13;;
51020;SDS011;38907;45.562;8.856;2023-05-07T05:42:45;3.10;;;2.70;;
51020;SDS011;38907;45.562;8.856;2023-05-07T05:47:46;2.95;;;2.42;;
51020;SDS011;38907;45.562;8.856;2023-05-07T05:52:48;3.05;;;2.50;;
51020;SDS011;38907;45.562;8.856;2023-05-07T05:57:52;3.65;;;3.00;;
51020;SDS011;38907;45.562;8.856;2023-05-07T06:02:54;2.72;;;2.53;;
51020;SDS011;38907;45.562;8.856;2023-05-07T06:07:56;3.13;;;2.83;;
51020;SDS011;38907;45.562;8.856;2023-05-07T06:12:59;3.35;;;2.97;;
51020;SDS011;38907;45.562;8.856;2023-05-07T06:18:01;5.82;;;2.72;;
51020;SDS011;38907;45.562;8.856;2023-05-07T06:23:02;6.28;;;3.63;;
51020;SDS011;38907;45.562;8.856;2023-05-07T06:28:06;3.92;;;3.53;;
51020;SDS011;38907;45.562;8.856;2023-05-07T06:33:08;3.72;;;3.20;;
51020;SDS011;38907;45.562;8.856;2023-05-07T06:38:10;5.55;;;3.97;;
51020;SDS011;38907;45.562;8.856;2023-05-07T06:43:13;5.28;;;4.78;;
51020;SDS011;38907;45.562;8.856;2023-05-07T06:48:15;6.60;;;5.18;;
51020;SDS011;38907;45.562;8.856;2023-05-07T06:53:17;5.65;;;4.68;;
51020;SDS011;38907;45.562;8.856;2023-05-07T06:58:20;5.63;;;4.75;;
51020;SDS011;38907;45.562;8.856;2023-05-07T07:03:22;6.22;;;4.55;;
51020;SDS011;38907;45.562;8.856;2023-05-07T07:08:24;4.80;;;4.32;;
51020;SDS011;38907;45.562;8.856;2023-05-07T07:13:27;6.05;;;4.20;;
51020;SDS011;38907;45.562;8.856;2023-05-07T07:18:29;7.32;;;4.40;;
51020;SDS011;38907;45.562;8.856;2023-05-07T07:23:31;4.50;;;3.67;;
51020;SDS011;38907;45.562;8.856;2023-05-07T07:28:34;4.53;;;3.80;;
51020;SDS011;38907;45.562;8.856;2023-05-07T07:33:46;4.88;;;4.10;;
51020;SDS011;38907;45.562;8.856;2023-05-07T07:38:50;4.53;;;4.13;;
51020;SDS011;38907;45.562;8.856;2023-05-07T07:43:53;4.38;;;3.95;;
51020;SDS011;38907;45.562;8.856;2023-05-07T07:48:55;5.25;;;3.97;;
51020;SDS011;38907;45.562;8.856;2023-05-07T07:54:06;5.75;;;4.57;;
51020;SDS011;38907;45.562;8.856;2023-05-07T07:59:09;6.85;;;5.60;;
51020;SDS011;38907;45.562;8.856;2023-05-07T08:04:14;9.98;;;6.43;;
51020;SDS011;38907;45.562;8.856;2023-05-07T08:09:16;8.52;;;6.15;;
51020;SDS011;38907;45.562;8.856;2023-05-07T08:14:20;5.68;;;4.90;;
51020;SDS011;38907;45.562;8.856;2023-05-07T08:19:22;4.75;;;3.65;;
51020;SDS011;38907;45.562;8.856;2023-05-07T08:24:25;4.20;;;3.80;;
51020;SDS011;38907;45.562;8.856;2023-05-07T08:29:28;5.88;;;3.83;;
51020;SDS011;38907;45.562;8.856;2023-05-07T08:34:31;6.18;;;4.20;;
51020;SDS011;38907;45.562;8.856;2023-05-07T08:39:33;5.05;;;4.50;;
51020;SDS011;38907;45.562;8.856;2023-05-07T08:44:37;4.90;;;4.40;;
51020;SDS011;38907;45.562;8.856;2023-05-07T08:49:40;6.32;;;4.63;;
51020;SDS011;38907;45.562;8.856;2023-05-07T08:54:43;4.45;;;4.05;;
51020;SDS011;38907;45.562;8.856;2023-05-07T08:59:47;4.60;;;4.10;;
51020;SDS011;38907;45.562;8.856;2023-05-07T09:04:49;4.80;;;4.30;;
51020;SDS011;38907;45.562;8.856;2023-05-07T09:09:51;4.22;;;3.83;;
51020;SDS011;38907;45.562;8.856;2023-05-07T09:14:56;4.10;;;3.70;;
51020;SDS011;38907;45.562;8.856;2023-05-07T09:20:01;8.00;;;3.50;;
51020;SDS011;38907;45.562;8.856;2023-05-07T09:25:06;5.53;;;3.00;;
51020;SDS011;38907;45.562;8.856;2023-05-07T09:30:11;2.75;;;2.55;;
51020;SDS011;38907;45.562;8.856;2023-05-07T09:35:16;5.93;;;3.50;;
51020;SDS011;38907;45.562;8.856;2023-05-07T09:40:22;3.70;;;3.35;;
51020;SDS011;38907;45.562;8.856;2023-05-07T09:45:26;4.28;;;3.85;;
51020;SDS011;38907;45.562;8.856;2023-05-07T09:50:29;8.05;;;3.95;;
51020;SDS011;38907;45.562;8.856;2023-05-07T09:55:36;6.60;;;4.25;;
51020;SDS011;38907;45.562;8.856;2023-05-07T10:00:41;6.45;;;4.22;;
51020;SDS011;38907;45.562;8.856;2023-05-07T10:05:43;5.18;;;4.70;;
51020;SDS011;38907;45.562;8.856;2023-05-07T10:10:47;5.38;;;4.88;;
51020;SDS011;38907;45.562;8.856;2023-05-07T10:15:53;5.57;;;4.55;;
51020;SDS011;38907;45.562;8.856;2023-05-07T10:20:56;9.02;;;5.20;;
51020;SDS011;38907;45.562;8.856;2023-05-07T10:26:03;4.70;;;4.22;;
51020;SDS011;38907;45.562;8.856;2023-05-07T10:31:11;3.42;;;3.13;;
51020;SDS011;38907;45.562;8.856;2023-05-07T10:36:25;5.35;;;3.88;;
51020;SDS011;38907;45.562;8.856;2023-05-07T10:46:31;3.88;;;3.55;;
51020;SDS011;38907;45.562;8.856;2023-05-07T10:51:35;8.02;;;6.43;;
51020;SDS011;38907;45.562;8.856;2023-05-07T10:56:37;4.32;;;3.45;;
51020;SDS011;38907;45.562;8.856;2023-05-07T11:01:50;3.95;;;3.50;;
51020;SDS011;38907;45.562;8.856;2023-05-07T11:17:54;3.38;;;2.83;;
51020;SDS011;38907;45.562;8.856;2023-05-07T11:22:56;3.08;;;2.40;;
51020;SDS011;38907;45.562;8.856;2023-05-07T11:28:03;3.90;;;2.53;;
51020;SDS011;38907;45.562;8.856;2023-05-07T11:33:08;3.83;;;2.30;;
51020;SDS011;38907;45.562;8.856;2023-05-07T11:38:10;2.97;;;2.45;;
51020;SDS011;38907;45.562;8.856;2023-05-07T11:43:14;2.50;;;2.30;;
51020;SDS011;38907;45.562;8.856;2023-05-07T11:48:17;2.38;;;2.17;;
51020;SDS011;38907;45.562;8.856;2023-05-07T11:53:24;3.70;;;2.50;;
51020;SDS011;38907;45.562;8.856;2023-05-07T11:58:26;2.95;;;2.55;;
51020;SDS011;38907;45.562;8.856;2023-05-07T12:03:30;2.97;;;2.78;;
51020;SDS011;38907;45.562;8.856;2023-05-07T12:08:32;3.00;;;2.58;;
51020;SDS011;38907;45.562;8.856;2023-05-07T12:13:37;3.08;;;2.80;;
51020;SDS011;38907;45.562;8.856;2023-05-07T12:18:42;2.95;;;2.70;;
51020;SDS011;38907;45.562;8.856;2023-05-07T12:23:45;5.03;;;2.78;;
51020;SDS011;38907;45.562;8.856;2023-05-07T12:28:47;2.90;;;2.70;;
51020;SDS011;38907;45.562;8.856;2023-05-07T12:33:51;3.30;;;3.00;;
51020;SDS011;38907;45.562;8.856;2023-05-07T12:38:53;3.20;;;2.83;;
51020;SDS011;38907;45.562;8.856;2023-05-07T12:43:56;3.83;;;3.13;;
51020;SDS011;38907;45.562;8.856;2023-05-07T12:54:01;4.25;;;2.50;;
51020;SDS011;38907;45.562;8.856;2023-05-07T12:59:03;3.00;;;2.50;;
51020;SDS011;38907;45.562;8.856;2023-05-07T13:09:09;2.15;;;1.90;;
51020;SDS011;38907;45.562;8.856;2023-05-07T13:14:11;3.55;;;2.20;;
51020;SDS011;38907;45.562;8.856;2023-05-07T13:19:15;2.08;;;1.88;;
51020;SDS011;38907;45.562;8.856;2023-05-07T13:24:17;4.32;;;2.15;;
51020;SDS011;38907;45.562;8.856;2023-05-07T13:29:20;2.70;;;2.22;;
51020;SDS011;38907;45.562;8.856;2023-05-07T13:34:27;4.63;;;2.17;;
51020;SDS011;38907;45.562;8.856;2023-05-07T13:39:29;2.83;;;2.53;;
51020;SDS011;38907;45.562;8.856;2023-05-07T13:44:32;3.85;;;2.80;;
51020;SDS011;38907;45.562;8.856;2023-05-07T13:49:35;3.20;;;2.80;;
51020;SDS011;38907;45.562;8.856;2023-05-07T13:54:38;2.97;;;2.67;;
51020;SDS011;38907;45.562;8.856;2023-05-07T13:59:42;2.72;;;2.50;;
51020;SDS011;38907;45.562;8.856;2023-05-07T14:04:46;3.28;;;2.78;;
51020;SDS011;38907;45.562;8.856;2023-05-07T14:09:48;3.20;;;2.90;;
51020;SDS011;38907;45.562;8.856;2023-05-07T14:14:50;4.28;;;2.35;;
51020;SDS011;38907;45.562;8.856;2023-05-07T14:24:56;3.80;;;2.15;;
51020;SDS011;38907;45.562;8.856;2023-05-07T14:29:59;2.10;;;1.90;;
51020;SDS011;38907;45.562;8.856;2023-05-07T14:35:02;2.17;;;2.00;;
51020;SDS011;38907;45.562;8.856;2023-05-07T14:40:05;1.95;;;1.85;;
51020;SDS011;38907;45.562;8.856;2023-05-07T14:45:08;2.10;;;1.90;;
51020;SDS011;38907;45.562;8.856;2023-05-07T14:50:12;2.10;;;1.90;;
51020;SDS011;38907;45.562;8.856;2023-05-07T14:55:14;1.80;;;1.70;;
51020;SDS011;38907;45.562;8.856;2023-05-07T15:00:16;1.75;;;1.65;;
51020;SDS011;38907;45.562;8.856;2023-05-07T15:05:20;2.28;;;2.08;;
51020;SDS011;38907;45.562;8.856;2023-05-07T15:10:22;1.80;;;1.70;;
51020;SDS011;38907;45.562;8.856;2023-05-07T15:15:24;2.20;;;2.00;;
51020;SDS011;38907;45.562;8.856;2023-05-07T15:20:27;3.08;;;2.30;;
51020;SDS011;38907;45.562;8.856;2023-05-07T15:25:29;2.63;;;2.20;;
51020;SDS011;38907;45.562;8.856;2023-05-07T15:30:33;2.70;;;2.50;;
51020;SDS011;38907;45.562;8.856;2023-05-07T15:35:37;13.02;;;2.83;;
51020;SDS011;38907;45.562;8.856;2023-05-07T15:40:39;3.95;;;2.25;;
51020;SDS011;38907;45.562;8.856;2023-05-07T15:45:42;2.35;;;2.15;;
51020;SDS011;38907;45.562;8.856;2023-05-07T15:50:45;2.42;;;2.22;;
51020;SDS011;38907;45.562;8.856;2023-05-07T15:55:47;2.20;;;2.00;;
51020;SDS011;38907;45.562;8.856;2023-05-07T16:00:49;3.25;;;2.40;;
51020;SDS011;38907;45.562;8.856;2023-05-07T16:05:53;2.42;;;2.22;;
51020;SDS011;38907;45.562;8.856;2023-05-07T16:10:56;2.47;;;2.28;;
51020;SDS011;38907;45.562;8.856;2023-05-07T16:15:58;2.40;;;2.00;;
51020;SDS011;38907;45.562;8.856;2023-05-07T16:21:01;2.63;;;2.42;;
51020;SDS011;38907;45.562;8.856;2023-05-07T16:26:03;3.17;;;2.58;;
51020;SDS011;38907;45.562;8.856;2023-05-07T16:31:06;2.42;;;2.22;;
51020;SDS011;38907;45.562;8.856;2023-05-07T16:36:09;3.42;;;2.13;;
51020;SDS011;38907;45.562;8.856;2023-05-07T16:41:11;3.25;;;2.95;;
51020;SDS011;38907;45.562;8.856;2023-05-07T16:46:14;5.70;;;2.97;;
51020;SDS011;38907;45.562;8.856;2023-05-07T16:51:18;4.15;;;3.03;;
51020;SDS011;38907;45.562;8.856;2023-05-07T16:56:23;3.13;;;2.60;;
51020;SDS011;38907;45.562;8.856;2023-05-07T17:01:26;3.25;;;2.63;;
51020;SDS011;38907;45.562;8.856;2023-05-07T17:06:33;4.85;;;3.28;;
51020;SDS011;38907;45.562;8.856;2023-05-07T17:11:35;4.15;;;2.88;;
51020;SDS011;38907;45.562;8.856;2023-05-07T17:16:37;7.03;;;3.13;;
51020;SDS011;38907;45.562;8.856;2023-05-07T17:21:41;3.80;;;3.40;;
51020;SDS011;38907;45.562;8.856;2023-05-07T17:26:42;5.35;;;4.57;;
51020;SDS011;38907;45.562;8.856;2023-05-07T17:31:45;3.70;;;3.15;;
51020;SDS011;38907;45.562;8.856;2023-05-07T17:36:48;98.95;;;53.92;;
51020;SDS011;38907;45.562;8.856;2023-05-07T17:41:52;98.15;;;56.65;;
51020;SDS011;38907;45.562;8.856;2023-05-07T17:46:54;126.90;;;83.93;;
51020;SDS011;38907;45.562;8.856;2023-05-07T17:51:58;120.25;;;76.90;;
51020;SDS011;38907;45.562;8.856;2023-05-07T17:57:02;55.85;;;36.30;;
51020;SDS011;38907;45.562;8.856;2023-05-07T18:02:07;7.78;;;5.32;;
51020;SDS011;38907;45.562;8.856;2023-05-07T18:07:11;3.80;;;3.50;;
51020;SDS011;38907;45.562;8.856;2023-05-07T18:12:14;5.38;;;3.85;;
51020;SDS011;38907;45.562;8.856;2023-05-07T18:17:16;11.20;;;3.07;;
51020;SDS011;38907;45.562;8.856;2023-05-07T18:22:20;4.80;;;3.40;;
51020;SDS011;38907;45.562;8.856;2023-05-07T18:27:22;4.10;;;3.28;;
51020;SDS011;38907;45.562;8.856;2023-05-07T18:32:23;6.13;;;2.77;;
51020;SDS011;38907;45.562;8.856;2023-05-07T18:37:27;4.53;;;2.63;;
51020;SDS011;38907;45.562;8.856;2023-05-07T18:42:30;3.28;;;2.72;;
51020;SDS011;38907;45.562;8.856;2023-05-07T18:47:32;6.07;;;2.53;;
51020;SDS011;38907;45.562;8.856;2023-05-07T18:52:35;4.17;;;2.30;;
51020;SDS011;38907;45.562;8.856;2023-05-07T18:57:37;3.28;;;2.30;;
51020;SDS011;38907;45.562;8.856;2023-05-07T19:02:40;5.53;;;2.65;;
51020;SDS011;38907;45.562;8.856;2023-05-07T19:07:43;9.65;;;3.40;;
51020;SDS011;38907;45.562;8.856;2023-05-07T19:12:46;8.45;;;4.45;;
51020;SDS011;38907;45.562;8.856;2023-05-07T19:17:51;9.85;;;5.40;;
51020;SDS011;38907;45.562;8.856;2023-05-07T19:22:56;4.55;;;3.30;;
51020;SDS011;38907;45.562;8.856;2023-05-07T19:27:58;3.40;;;3.10;;
51020;SDS011;38907;45.562;8.856;2023-05-07T19:33:03;2.92;;;2.72;;
51020;SDS011;38907;45.562;8.856;2023-05-07T19:38:06;5.07;;;3.10;;
51020;SDS011;38907;45.562;8.856;2023-05-07T19:43:09;3.80;;;3.50;;
51020;SDS011;38907;45.562;8.856;2023-05-07T19:48:12;4.00;;;3.25;;
51020;SDS011;38907;45.562;8.856;2023-05-07T19:53:16;4.03;;;3.58;;
51020;SDS011;38907;45.562;8.856;2023-05-07T19:58:18;5.07;;;3.53;;
51020;SDS011;38907;45.562;8.856;2023-05-07T20:03:20;5.78;;;4.50;;
51020;SDS011;38907;45.562;8.856;2023-05-07T20:08:23;12.83;;;5.73;;
51020;SDS011;38907;45.562;8.856;2023-05-07T20:13:27;3.60;;;3.30;;
51020;SDS011;38907;45.562;8.856;2023-05-07T20:18:29;4.82;;;3.42;;
51020;SDS011;38907;45.562;8.856;2023-05-07T20:23:32;4.70;;;3.77;;
51020;SDS011;38907;45.562;8.856;2023-05-07T20:28:34;4.97;;;4.15;;
51020;SDS011;38907;45.562;8.856;2023-05-07T20:33:36;8.05;;;3.40;;
51020;SDS011;38907;45.562;8.856;2023-05-07T20:38:41;4.25;;;3.78;;
51020;SDS011;38907;45.562;8.856;2023-05-07T20:43:44;6.07;;;4.13;;
51020;SDS011;38907;45.562;8.856;2023-05-07T20:48:47;4.72;;;3.65;;
51020;SDS011;38907;45.562;8.856;2023-05-07T20:53:52;4.47;;;3.40;;
51020;SDS011;38907;45.562;8.856;2023-05-07T20:58:54;8.52;;;3.65;;
51020;SDS011;38907;45.562;8.856;2023-05-07T21:03:56;3.87;;;3.23;;
51020;SDS011;38907;45.562;8.856;2023-05-07T21:08:59;5.23;;;3.67;;
51020;SDS011;38907;45.562;8.856;2023-05-07T21:14:01;5.75;;;3.00;;
51020;SDS011;38907;45.562;8.856;2023-05-07T21:19:03;4.10;;;3.70;;
51020;SDS011;38907;45.562;8.856;2023-05-07T21:24:07;5.68;;;3.78;;
51020;SDS011;38907;45.562;8.856;2023-05-07T21:29:09;5.07;;;3.58;;
51020;SDS011;38907;45.562;8.856;2023-05-07T21:34:11;4.93;;;3.40;;
51020;SDS011;38907;45.562;8.856;2023-05-07T21:39:14;3.17;;;2.88;;
51020;SDS011;38907;45.562;8.856;2023-05-07T21:44:16;4.60;;;2.72;;
51020;SDS011;38907;45.562;8.856;2023-05-07T21:49:17;2.72;;;2.53;;
51020;SDS011;38907;45.562;8.856;2023-05-07T21:54:21;2.58;;;2.38;;
51020;SDS011;38907;45.562;8.856;2023-05-07T21:59:23;2.42;;;2.22;;
51020;SDS011;38907;45.562;8.856;2023-05-07T22:04:24;2.92;;;2.15;;
51020;SDS011;38907;45.562;8.856;2023-05-07T22:09:28;7.53;;;2.58;;
51020;SDS011;38907;45.562;8.856;2023-05-07T22:14:30;4.50;;;2.10;;
51020;SDS011;38907;45.562;8.856;2023-05-07T22:19:32;2.60;;;2.07;;
51020;SDS011;38907;45.562;8.856;2023-05-07T22:24:35;4.13;;;1.70;;
51020;SDS011;38907;45.562;8.856;2023-05-07T22:29:37;2.80;;;2.08;;
51020;SDS011;38907;45.562;8.856;2023-05-07T22:34:39;4.22;;;1.80;;
51020;SDS011;38907;45.562;8.856;2023-05-07T22:39:42;2.03;;;1.70;;
51020;SDS011;38907;45.562;8.856;2023-05-07T22:44:44;1.80;;;1.70;;
51020;SDS011;38907;45.562;8.856;2023-05-07T22:49:46;2.63;;;2.20;;
51020;SDS011;38907;45.562;8.856;2023-05-07T22:54:50;2.77;;;2.13;;
51020;SDS011;38907;45.562;8.856;2023-05-07T22:59:52;2.35;;;2.15;;
51020;SDS011;38907;45.562;8.856;2023-05-07T23:04:56;3.28;;;2.38;;
51020;SDS011;38907;45.562;8.856;2023-05-07T23:10:00;5.20;;;2.22;;
51020;SDS011;38907;45.562;8.856;2023-05-07T23:15:03;2.40;;;2.20;;
51020;SDS011;38907;45.562;8.856;2023-05-07T23:20:06;2.13;;;1.92;;
51020;SDS011;38907;45.562;8.856;2023-05-07T23:25:10;1.85;;;1.73;;
51020;SDS011;38907;45.562;8.856;2023-05-07T23:30:12;2.53;;;2.30;;
51020;SDS011;38907;45.562;8.856;2023-05-07T23:35:14;2.58;;;2.38;;
51020;SDS011;38907;45.562;8.856;2023-05-07T23:40:17;2.88;;;1.98;;
51020;SDS011;38907;45.562;8.856;2023-05-07T23:45:19;3.17;;;2.47;;
51020;SDS011;38907;45.562;8.856;2023-05-07T23:50:21;6.55;;;2.28;;
51020;SDS011;38907;45.562;8.856;2023-05-07T23:55:25;2.38;;;2.17;;
